createdAt,value
2023-04-19T00:00:35.306Z,0.90
2023-04-19T00:01:35.417Z,0.90
2023-04-19T00:02:35.425Z,0.90
2023-04-19T00:03:35.632Z,0.90
2023-04-19T00:04:35.466Z,0.90
2023-04-19T00:05:35.376Z,0.90
2023-04-19T00:06:35.417Z,0.90
2023-04-19T00:07:35.555Z,0.80
2023-04-19T00:08:35.450Z,0.80
2023-04-19T00:09:35.445Z,1.00
2023-04-19T00:10:35.453Z,0.90
2023-04-19T00:11:35.483Z,0.90
2023-04-19T00:12:35.590Z,0.80
2023-04-19T00:13:35.505Z,0.80
2023-04-19T00:14:35.516Z,0.80
2023-04-19T00:15:35.545Z,0.90
2023-04-19T00:16:35.590Z,0.90
2023-04-19T00:17:35.603Z,0.90
2023-04-19T00:18:35.686Z,0.80
2023-04-19T00:19:35.603Z,0.80
2023-04-19T00:20:35.620Z,0.80
2023-04-19T00:21:35.626Z,0.90
2023-04-19T00:22:35.651Z,0.80
2023-04-19T00:23:35.661Z,0.80
2023-04-19T00:24:35.814Z,0.90
2023-04-19T00:25:35.690Z,0.90
2023-04-19T00:26:35.722Z,0.80
2023-04-19T00:27:35.732Z,0.70
2023-04-19T00:28:35.748Z,0.80
2023-04-19T00:29:35.753Z,0.80
2023-04-19T00:30:35.899Z,0.80
2023-04-19T00:31:35.790Z,0.80
2023-04-19T00:32:35.853Z,0.70
2023-04-19T00:33:35.827Z,0.80
2023-04-19T00:34:35.870Z,0.70
2023-04-19T00:35:35.873Z,0.70
2023-04-19T00:36:35.992Z,0.80
2023-04-19T00:37:35.897Z,0.70
2023-04-19T00:38:35.897Z,0.70
2023-04-19T00:39:35.912Z,0.90
2023-04-19T00:40:35.947Z,0.80
2023-04-19T00:41:35.950Z,0.80
2023-04-19T00:42:36.072Z,0.90
2023-04-19T00:43:35.981Z,0.80
2023-04-19T00:44:35.992Z,0.90
2023-04-19T00:45:36.015Z,0.70
2023-04-19T00:46:36.061Z,0.70
2023-04-19T00:47:36.207Z,0.70
2023-04-19T00:48:36.054Z,0.70
2023-04-19T00:49:36.070Z,0.70
2023-04-19T00:50:36.134Z,0.70
2023-04-19T00:51:36.110Z,0.60
2023-04-19T00:52:36.117Z,0.80
2023-04-19T00:53:36.241Z,0.70
2023-04-19T00:54:36.160Z,0.70
2023-04-19T00:55:36.172Z,0.90
2023-04-19T00:56:36.198Z,0.70
2023-04-19T00:57:36.195Z,0.70
2023-04-19T00:58:36.212Z,0.80
2023-04-19T00:59:36.327Z,0.90
2023-04-19T01:00:36.242Z,0.80
2023-04-19T01:01:36.319Z,0.80
2023-04-19T01:02:36.427Z,0.80
2023-04-19T01:03:36.466Z,0.90
2023-04-19T01:04:36.351Z,0.60
2023-04-19T01:05:36.483Z,0.80
2023-04-19T01:06:36.335Z,0.70
2023-04-19T01:07:36.365Z,0.80
2023-04-19T01:08:36.368Z,0.70
2023-04-19T01:09:36.392Z,0.80
2023-04-19T01:10:36.416Z,0.70
2023-04-19T01:11:36.776Z,0.70
2023-04-19T01:12:36.455Z,0.90
2023-04-19T01:13:36.448Z,0.80
2023-04-19T01:14:36.466Z,0.60
2023-04-19T01:15:36.526Z,0.70
2023-04-19T01:16:36.495Z,0.80
2023-04-19T01:17:36.665Z,0.70
2023-04-19T01:18:36.527Z,0.90
2023-04-19T01:19:36.558Z,0.80
2023-04-19T01:20:36.571Z,0.60
2023-04-19T01:21:36.571Z,0.70
2023-04-19T01:22:36.594Z,0.70
2023-04-19T01:23:36.714Z,0.70
2023-04-19T01:24:36.625Z,0.90
2023-04-19T01:25:36.650Z,0.80
2023-04-19T01:26:36.678Z,0.80
2023-04-19T01:27:36.667Z,0.90
2023-04-19T01:28:36.708Z,0.70
2023-04-19T01:29:36.853Z,0.80
2023-04-19T01:30:36.714Z,0.80
2023-04-19T01:31:36.758Z,0.60
2023-04-19T01:32:36.766Z,0.60
2023-04-19T01:33:36.772Z,0.70
2023-04-19T01:34:36.796Z,0.70
2023-04-19T01:35:36.897Z,0.60
2023-04-19T01:36:36.807Z,0.60
2023-04-19T01:37:36.834Z,0.60
2023-04-19T01:38:36.843Z,0.80
2023-04-19T01:39:36.857Z,0.70
2023-04-19T01:40:36.979Z,0.70
2023-04-19T01:41:36.894Z,0.80
2023-04-19T01:42:36.912Z,0.80
2023-04-19T01:43:36.923Z,0.70
2023-04-19T01:44:36.955Z,0.60
2023-04-19T01:45:36.968Z,0.70
2023-04-19T01:46:37.117Z,0.70
2023-04-19T01:47:37.010Z,0.90
2023-04-19T01:48:37.008Z,0.60
2023-04-19T01:49:37.017Z,0.60
2023-04-19T01:50:37.043Z,0.80
2023-04-19T01:51:37.058Z,0.70
2023-04-19T01:52:37.169Z,0.70
2023-04-19T01:53:37.083Z,0.90
2023-04-19T01:54:37.099Z,0.50
2023-04-19T01:55:37.115Z,0.50
2023-04-19T01:56:37.128Z,0.70
2023-04-19T01:57:37.139Z,0.60
2023-04-19T01:58:37.255Z,0.60
2023-04-19T01:59:37.176Z,0.70
2023-04-19T02:00:37.273Z,0.70
2023-04-19T02:01:37.213Z,0.80
2023-04-19T02:02:37.386Z,0.80
2023-04-19T02:03:38.159Z,0.80
2023-04-19T02:04:37.349Z,0.70
2023-04-19T02:05:37.264Z,0.70
2023-04-19T02:06:37.286Z,0.70
2023-04-19T02:07:37.396Z,0.60
2023-04-19T02:08:37.436Z,0.70
2023-04-19T02:09:37.405Z,0.70
2023-04-19T02:10:37.637Z,0.70
2023-04-19T02:11:37.489Z,0.60
2023-04-19T02:12:37.375Z,0.70
2023-04-19T02:13:37.407Z,0.80
2023-04-19T02:14:37.412Z,0.70
2023-04-19T02:15:37.669Z,0.70
2023-04-19T02:16:37.553Z,0.50
2023-04-19T02:17:37.503Z,0.50
2023-04-19T02:18:37.547Z,0.60
2023-04-19T02:19:37.561Z,0.60
2023-04-19T02:20:37.651Z,0.80
2023-04-19T02:21:37.662Z,0.60
2023-04-19T02:22:37.666Z,0.60
2023-04-19T02:23:37.614Z,0.60
2023-04-19T02:24:37.583Z,0.70
2023-04-19T02:25:37.591Z,0.50
2023-04-19T02:26:37.733Z,0.80
2023-04-19T02:27:37.862Z,0.70
2023-04-19T02:28:37.665Z,0.70
2023-04-19T02:29:37.659Z,0.60
2023-04-19T02:30:37.657Z,0.70
2023-04-19T02:31:38.011Z,0.60
2023-04-19T02:32:37.882Z,0.70
2023-04-19T02:33:37.711Z,0.70
2023-04-19T02:34:37.724Z,0.80
2023-04-19T02:35:37.738Z,0.60
2023-04-19T02:36:37.750Z,0.60
2023-04-19T02:37:37.765Z,0.60
2023-04-19T02:38:37.889Z,0.50
2023-04-19T02:39:37.811Z,0.60
2023-04-19T02:40:37.825Z,0.60
2023-04-19T02:41:37.828Z,0.70
2023-04-19T02:42:37.858Z,0.60
2023-04-19T02:43:37.967Z,0.50
2023-04-19T02:44:37.881Z,0.60
2023-04-19T02:45:37.923Z,0.60
2023-04-19T02:46:37.962Z,0.50
2023-04-19T02:47:37.981Z,0.60
2023-04-19T02:48:37.961Z,0.60
2023-04-19T02:49:38.052Z,0.70
2023-04-19T02:50:37.968Z,0.50
2023-04-19T02:51:37.989Z,0.70
2023-04-19T02:52:38.004Z,0.60
2023-04-19T02:53:38.021Z,0.60
2023-04-19T02:54:38.036Z,0.60
2023-04-19T02:55:38.176Z,0.60
2023-04-19T02:56:38.065Z,0.70
2023-04-19T02:57:38.081Z,0.40
2023-04-19T02:58:38.098Z,0.60
2023-04-19T02:59:38.115Z,0.60
2023-04-19T03:00:38.229Z,0.50
2023-04-19T03:01:38.187Z,0.60
2023-04-19T03:02:38.270Z,0.60
2023-04-19T03:03:38.253Z,0.40
2023-04-19T03:04:38.204Z,0.70
2023-04-19T03:05:38.206Z,0.60
2023-04-19T03:06:38.315Z,0.60
2023-04-19T03:07:38.236Z,0.30
2023-04-19T03:08:38.254Z,0.60
2023-04-19T03:09:38.276Z,0.70
2023-04-19T03:10:38.290Z,0.50
2023-04-19T03:11:38.297Z,0.50
2023-04-19T03:12:38.413Z,0.50
2023-04-19T03:13:38.331Z,0.60
2023-04-19T03:14:38.358Z,0.50
2023-04-19T03:15:38.421Z,0.50
2023-04-19T03:16:38.373Z,0.50
2023-04-19T03:17:38.422Z,0.50
2023-04-19T03:18:38.512Z,0.50
2023-04-19T03:19:38.414Z,0.50
2023-04-19T03:20:38.459Z,0.60
2023-04-19T03:21:38.448Z,0.60
2023-04-19T03:22:38.497Z,0.50
2023-04-19T03:23:38.507Z,0.60
2023-04-19T03:24:38.587Z,0.50
2023-04-19T03:25:38.517Z,0.50
2023-04-19T03:26:38.517Z,0.50
2023-04-19T03:27:38.538Z,0.50
2023-04-19T03:28:38.555Z,0.60
2023-04-19T03:29:38.578Z,0.50
2023-04-19T03:30:38.688Z,0.50
2023-04-19T03:31:38.648Z,0.40
2023-04-19T03:32:38.650Z,0.60
2023-04-19T03:33:38.632Z,0.40
2023-04-19T03:34:38.640Z,0.50
2023-04-19T03:35:38.662Z,0.50
2023-04-19T03:36:38.800Z,0.50
2023-04-19T03:37:38.692Z,0.50
2023-04-19T03:38:38.704Z,0.40
2023-04-19T03:39:38.716Z,0.50
2023-04-19T03:40:38.740Z,0.30
2023-04-19T03:41:38.851Z,0.70
2023-04-19T03:42:38.771Z,0.40
2023-04-19T03:43:38.779Z,0.40
2023-04-19T03:44:38.804Z,0.50
2023-04-19T03:45:38.815Z,0.50
2023-04-19T03:46:38.953Z,0.60
2023-04-19T03:47:38.972Z,0.60
2023-04-19T03:48:38.861Z,0.50
2023-04-19T03:49:38.877Z,0.50
2023-04-19T03:50:38.886Z,0.30
2023-04-19T03:51:38.905Z,0.30
2023-04-19T03:52:38.945Z,0.50
2023-04-19T03:53:39.042Z,0.40
2023-04-19T03:54:38.959Z,0.40
2023-04-19T03:55:38.975Z,0.50
2023-04-19T03:56:38.974Z,0.40
2023-04-19T03:57:38.994Z,0.50
2023-04-19T03:58:41.008Z,0.40
2023-04-19T03:59:39.030Z,0.40
2023-04-19T04:00:39.045Z,0.40
2023-04-19T04:01:39.103Z,0.50
2023-04-19T04:02:39.283Z,0.50
2023-04-19T04:03:39.271Z,0.40
2023-04-19T04:04:39.361Z,0.40
2023-04-19T04:05:39.239Z,0.30
2023-04-19T04:06:39.139Z,0.40
2023-04-19T04:07:39.159Z,0.30
2023-04-19T04:08:39.304Z,0.40
2023-04-19T04:09:39.176Z,0.40
2023-04-19T04:10:39.299Z,0.40
2023-04-19T04:11:39.213Z,0.40
2023-04-19T04:12:39.225Z,0.60
2023-04-19T04:13:39.239Z,0.40
2023-04-19T04:14:39.262Z,0.40
2023-04-19T04:15:39.274Z,0.50
2023-04-19T04:16:39.573Z,0.50
2023-04-19T04:17:39.323Z,0.30
2023-04-19T04:18:39.325Z,0.40
2023-04-19T04:19:39.342Z,0.30
2023-04-19T04:20:39.350Z,0.50
2023-04-19T04:21:39.362Z,0.50
2023-04-19T04:22:39.482Z,0.40
2023-04-19T04:23:39.399Z,0.40
2023-04-19T04:24:39.437Z,0.40
2023-04-19T04:25:39.437Z,0.50
2023-04-19T04:26:39.562Z,0.30
2023-04-19T04:27:39.582Z,0.40
2023-04-19T04:28:39.478Z,0.40
2023-04-19T04:29:39.500Z,0.50
2023-04-19T04:30:39.514Z,0.50
2023-04-19T04:31:39.625Z,0.40
2023-04-19T04:32:39.572Z,0.40
2023-04-19T04:33:39.678Z,0.40
2023-04-19T04:34:39.583Z,0.40
2023-04-19T04:35:39.601Z,0.40
2023-04-19T04:36:39.623Z,0.40
2023-04-19T04:37:39.630Z,0.30
2023-04-19T04:38:39.744Z,0.30
2023-04-19T04:39:39.670Z,0.30
2023-04-19T04:40:39.697Z,0.50
2023-04-19T04:41:39.684Z,0.40
2023-04-19T04:42:39.710Z,0.20
2023-04-19T04:43:39.719Z,0.40
2023-04-19T04:44:39.834Z,0.40
2023-04-19T04:45:39.829Z,0.40
2023-04-19T04:46:39.788Z,0.30
2023-04-19T04:47:39.820Z,0.40
2023-04-19T04:48:39.808Z,0.30
2023-04-19T04:49:39.845Z,0.40
2023-04-19T04:50:39.929Z,0.30
2023-04-19T04:51:39.847Z,0.40
2023-04-19T04:52:39.874Z,0.40
2023-04-19T04:53:39.884Z,0.30
2023-04-19T04:54:39.899Z,0.30
2023-04-19T04:55:40.014Z,0.40
2023-04-19T04:56:40.010Z,0.30
2023-04-19T04:57:39.947Z,0.30
2023-04-19T04:58:39.956Z,0.40
2023-04-19T04:59:39.980Z,0.40
2023-04-19T05:00:39.983Z,0.30
2023-04-19T05:01:40.164Z,0.30
2023-04-19T05:02:40.131Z,0.30
2023-04-19T05:03:40.110Z,0.30
2023-04-19T05:04:40.131Z,0.30
2023-04-19T05:05:40.065Z,0.40
2023-04-19T05:06:40.074Z,0.30
2023-04-19T05:07:40.190Z,0.40
2023-04-19T05:08:40.113Z,0.30
2023-04-19T05:09:40.127Z,0.30
2023-04-19T05:10:40.138Z,0.40
2023-04-19T05:11:40.148Z,0.40
2023-04-19T05:12:40.290Z,0.50
2023-04-19T05:13:40.194Z,0.30
2023-04-19T05:14:40.198Z,0.30
2023-04-19T05:15:40.218Z,0.40
2023-04-19T05:16:40.260Z,0.40
2023-04-19T05:17:40.311Z,0.40
2023-04-19T05:18:40.557Z,0.50
2023-04-19T05:19:40.273Z,0.50
2023-04-19T05:20:40.285Z,0.30
2023-04-19T05:21:40.306Z,0.30
2023-04-19T05:22:40.324Z,0.30
2023-04-19T05:23:40.440Z,0.30
2023-04-19T05:24:42.305Z,0.40
2023-04-19T05:25:40.366Z,0.30
2023-04-19T05:26:40.387Z,0.40
2023-04-19T05:27:40.396Z,0.40
2023-04-19T05:28:40.475Z,0.40
2023-04-19T05:29:40.538Z,0.30
2023-04-19T05:30:40.455Z,0.30
2023-04-19T05:31:40.501Z,0.40
2023-04-19T05:32:40.520Z,0.40
2023-04-19T05:33:40.498Z,0.30
2023-04-19T05:34:40.612Z,0.30
2023-04-19T05:35:40.527Z,0.40
2023-04-19T05:36:40.540Z,0.40
2023-04-19T05:37:40.563Z,0.30
2023-04-19T05:38:40.578Z,0.40
2023-04-19T05:39:42.866Z,0.30
2023-04-19T05:40:40.710Z,0.30
2023-04-19T05:41:40.630Z,0.30
2023-04-19T05:42:40.643Z,0.30
2023-04-19T05:43:40.660Z,0.30
2023-04-19T05:44:40.696Z,0.40
2023-04-19T05:45:40.786Z,0.50
2023-04-19T05:46:40.696Z,0.30
2023-04-19T05:47:40.770Z,0.30
2023-04-19T05:48:40.731Z,0.30
2023-04-19T05:49:42.005Z,0.30
2023-04-19T05:50:40.758Z,0.30
2023-04-19T05:51:40.883Z,0.30
2023-04-19T05:52:40.800Z,0.40
2023-04-19T05:53:40.809Z,0.40
2023-04-19T05:54:40.828Z,0.40
2023-04-19T05:55:40.841Z,0.40
2023-04-19T05:56:40.858Z,0.40
2023-04-19T05:57:41.013Z,0.40
2023-04-19T05:58:40.930Z,0.30
2023-04-19T05:59:40.900Z,0.30
2023-04-19T06:00:40.933Z,0.40
2023-04-19T06:01:40.950Z,0.40
2023-04-19T06:02:41.092Z,0.30
2023-04-19T06:03:41.445Z,0.40
2023-04-19T06:04:41.418Z,0.40
2023-04-19T06:05:41.125Z,0.40
2023-04-19T06:06:41.004Z,0.50
2023-04-19T06:07:47.257Z,0.30
2023-04-19T06:08:41.143Z,0.40
2023-04-19T06:09:41.043Z,0.20
2023-04-19T06:10:52.596Z,0.30
2023-04-19T06:11:49.995Z,0.40
2023-04-19T06:12:41.100Z,0.30
2023-04-19T06:13:41.111Z,0.40
2023-04-19T06:14:41.230Z,0.50
2023-04-19T06:15:41.222Z,0.40
2023-04-19T06:16:41.220Z,0.40
2023-04-19T06:17:41.235Z,0.40
2023-04-19T06:18:41.187Z,0.40
2023-04-19T06:19:41.195Z,0.30
2023-04-19T06:20:41.314Z,0.40
2023-04-19T06:21:41.237Z,0.30
2023-04-19T06:22:41.323Z,0.30
2023-04-19T06:23:41.267Z,0.30
2023-04-19T06:24:41.275Z,0.20
2023-04-19T06:25:41.294Z,0.40
2023-04-19T06:26:41.410Z,0.40
2023-04-19T06:27:41.325Z,0.40
2023-04-19T06:28:41.344Z,0.30
2023-04-19T06:29:41.360Z,0.50
2023-04-19T06:30:41.372Z,0.40
2023-04-19T06:31:41.545Z,0.30
2023-04-19T06:32:41.444Z,0.30
2023-04-19T06:33:41.415Z,0.40
2023-04-19T06:34:41.426Z,0.40
2023-04-19T06:35:41.457Z,0.50
2023-04-19T06:36:41.463Z,0.30
2023-04-19T06:37:41.579Z,0.40
2023-04-19T06:38:41.505Z,0.30
2023-04-19T06:39:41.499Z,0.40
2023-04-19T06:40:41.523Z,0.40
2023-04-19T06:41:41.538Z,0.40
2023-04-19T06:42:41.556Z,0.40
2023-04-19T06:43:41.670Z,0.40
2023-04-19T06:44:41.576Z,0.30
2023-04-19T06:45:41.668Z,0.40
2023-04-19T06:46:41.621Z,0.30
2023-04-19T06:47:41.674Z,0.40
2023-04-19T06:48:41.660Z,0.30
2023-04-19T06:49:41.764Z,0.40
2023-04-19T06:50:41.672Z,0.40
2023-04-19T06:51:41.690Z,0.30
2023-04-19T06:52:41.699Z,0.40
2023-04-19T06:53:41.718Z,0.50
2023-04-19T06:54:41.831Z,0.30
2023-04-19T06:55:41.752Z,0.40
2023-04-19T06:56:41.760Z,0.40
2023-04-19T06:57:41.783Z,0.30
2023-04-19T06:58:41.817Z,0.20
2023-04-19T06:59:41.815Z,0.50
2023-04-19T07:00:41.941Z,0.40
2023-04-19T07:01:41.919Z,0.40
2023-04-19T07:02:41.921Z,0.40
2023-04-19T07:03:42.059Z,0.40
2023-04-19T07:04:41.965Z,0.20
2023-04-19T07:05:41.898Z,0.40
2023-04-19T07:06:42.008Z,0.40
2023-04-19T07:07:41.929Z,0.40
2023-04-19T07:08:49.740Z,0.20
2023-04-19T07:09:41.959Z,0.30
2023-04-19T07:10:41.974Z,0.50
2023-04-19T07:11:42.224Z,0.40
2023-04-19T07:12:42.093Z,0.40
2023-04-19T07:13:42.034Z,0.30
2023-04-19T07:14:42.034Z,0.40
2023-04-19T07:15:42.107Z,0.40
2023-04-19T07:16:42.052Z,0.50
2023-04-19T07:17:42.134Z,0.40
2023-04-19T07:18:42.214Z,0.40
2023-04-19T07:19:42.104Z,0.40
2023-04-19T07:20:42.208Z,0.40
2023-04-19T07:21:42.140Z,0.30
2023-04-19T07:22:42.147Z,0.50
2023-04-19T07:23:42.302Z,0.40
2023-04-19T07:24:42.287Z,0.30
2023-04-19T07:25:42.193Z,0.30
2023-04-19T07:26:42.215Z,0.40
2023-04-19T07:27:42.227Z,0.40
2023-04-19T07:28:42.246Z,0.40
2023-04-19T07:29:42.266Z,0.30
2023-04-19T07:30:42.366Z,0.30
2023-04-19T07:31:42.305Z,0.40
2023-04-19T07:32:42.499Z,0.50
2023-04-19T07:33:42.313Z,0.30
2023-04-19T07:34:42.334Z,0.30
2023-04-19T07:35:42.449Z,0.40
2023-04-19T07:36:42.493Z,0.40
2023-04-19T07:37:42.657Z,0.50
2023-04-19T07:38:42.393Z,0.40
2023-04-19T07:39:42.409Z,0.40
2023-04-19T07:40:42.416Z,0.40
2023-04-19T07:41:42.535Z,0.40
2023-04-19T07:42:42.454Z,0.40
2023-04-19T07:43:42.478Z,0.40
2023-04-19T07:44:42.532Z,0.50
2023-04-19T07:45:42.496Z,0.40
2023-04-19T07:46:42.573Z,0.50
2023-04-19T07:47:42.644Z,0.40
2023-04-19T07:48:42.548Z,0.50
2023-04-19T07:49:42.561Z,0.40
2023-04-19T07:50:42.570Z,0.40
2023-04-19T07:51:42.581Z,0.30
2023-04-19T07:52:42.664Z,0.50
2023-04-19T07:53:42.746Z,0.50
2023-04-19T07:54:42.640Z,0.30
2023-04-19T07:55:42.651Z,0.40
2023-04-19T07:56:42.659Z,0.50
2023-04-19T07:57:42.692Z,0.40
2023-04-19T07:58:43.888Z,0.30
2023-04-19T07:59:42.849Z,0.40
2023-04-19T08:00:42.730Z,0.40
2023-04-19T08:01:42.824Z,0.40
2023-04-19T08:02:42.937Z,0.40
2023-04-19T08:03:43.014Z,0.50
2023-04-19T08:04:43.075Z,0.40
2023-04-19T08:05:42.977Z,0.40
2023-04-19T08:06:42.836Z,0.40
2023-04-19T08:07:42.826Z,0.40
2023-04-19T08:08:42.959Z,0.40
2023-04-19T08:09:42.919Z,0.60
2023-04-19T08:10:42.873Z,0.40
2023-04-19T08:11:42.991Z,0.40
2023-04-19T08:12:53.460Z,0.50
2023-04-19T08:13:51.553Z,0.50
2023-04-19T08:14:55.544Z,0.40
2023-04-19T08:17:19.232Z,0.40
2023-04-19T08:17:43.368Z,0.40
2023-04-19T08:18:42.995Z,0.40
2023-04-19T08:19:43.008Z,0.40
2023-04-19T08:20:43.075Z,0.50
2023-04-19T08:21:43.039Z,0.50
2023-04-19T08:22:43.066Z,0.50
2023-04-19T08:23:48.380Z,0.40
2023-04-19T08:24:43.104Z,0.40
2023-04-19T08:25:43.096Z,0.40
2023-04-19T08:26:43.121Z,0.40
2023-04-19T08:27:43.138Z,0.40
2023-04-19T08:28:43.153Z,0.40
2023-04-19T08:29:43.274Z,0.50
2023-04-19T08:30:43.179Z,0.60
2023-04-19T08:31:43.250Z,0.40
2023-04-19T08:32:43.241Z,0.40
2023-04-19T08:33:43.236Z,0.40
2023-04-19T08:34:43.249Z,0.40
2023-04-19T08:35:43.360Z,0.40
2023-04-19T08:36:51.918Z,0.40
2023-04-19T08:37:43.284Z,0.40
2023-04-19T08:38:46.734Z,0.40
2023-04-19T08:39:43.322Z,0.50
2023-04-19T08:40:43.358Z,0.50
2023-04-19T08:41:44.892Z,0.50
2023-04-19T08:42:43.360Z,0.60
2023-04-19T08:43:43.387Z,0.50
2023-04-19T08:44:54.350Z,0.50
2023-04-19T08:45:43.435Z,0.40
2023-04-19T08:46:43.522Z,0.50
2023-04-19T08:48:43.467Z,0.40
2023-04-19T08:49:43.927Z,0.40
2023-04-19T08:51:00.290Z,0.50
2023-04-19T08:51:43.499Z,0.50
2023-04-19T08:52:54.230Z,0.40
2023-04-19T08:53:43.519Z,0.40
2023-04-19T08:54:43.536Z,0.50
2023-04-19T08:55:59.289Z,0.50
2023-04-19T08:56:43.843Z,0.40
2023-04-19T08:57:43.596Z,0.40
2023-04-19T08:59:00.376Z,0.50
2023-04-19T08:59:43.621Z,0.50
2023-04-19T09:00:43.627Z,0.40
2023-04-19T09:01:44.862Z,0.60
2023-04-19T09:02:43.916Z,0.50
2023-04-19T09:03:58.567Z,0.60
2023-04-19T09:04:43.940Z,0.40
2023-04-19T09:05:43.850Z,0.50
2023-04-19T09:06:43.861Z,0.40
2023-04-19T09:07:43.731Z,0.40
2023-04-19T09:08:43.759Z,0.40
2023-04-19T09:09:59.674Z,0.40
2023-04-19T09:10:43.882Z,0.50
2023-04-19T09:11:43.795Z,0.40
2023-04-19T09:12:43.853Z,0.40
2023-04-19T09:13:43.825Z,0.50
2023-04-19T09:14:53.863Z,0.50
2023-04-19T09:15:43.873Z,0.40
2023-04-19T09:16:43.970Z,0.70
2023-04-19T09:17:43.895Z,0.40
2023-04-19T09:18:56.265Z,0.50
2023-04-19T09:19:43.915Z,0.40
2023-04-19T09:20:43.935Z,0.50
2023-04-19T09:21:43.936Z,0.50
2023-04-19T09:22:44.054Z,0.50
2023-04-19T09:23:43.968Z,0.50
2023-04-19T09:25:59.253Z,0.50
2023-04-19T09:26:44.019Z,0.50
2023-04-19T09:27:44.044Z,0.50
2023-04-19T09:28:44.164Z,0.50
2023-04-19T09:29:44.063Z,0.50
2023-04-19T09:30:58.218Z,0.60
2023-04-19T09:31:51.576Z,0.40
2023-04-19T09:32:44.320Z,0.40
2023-04-19T09:33:44.141Z,0.60
2023-04-19T09:34:44.247Z,0.40
2023-04-19T09:35:44.153Z,0.40
2023-04-19T09:36:44.167Z,0.50
2023-04-19T09:38:44.205Z,0.60
2023-04-19T09:39:44.211Z,0.40
2023-04-19T09:40:44.532Z,0.40
2023-04-19T09:41:44.235Z,0.40
2023-04-19T09:43:05.378Z,0.40
2023-04-19T09:45:16.825Z,0.50
2023-04-19T09:45:44.411Z,0.40
2023-04-19T09:46:44.338Z,0.60
2023-04-19T09:47:44.368Z,0.50
2023-04-19T09:48:44.346Z,0.40
2023-04-19T09:49:48.838Z,0.50
2023-04-19T09:50:54.670Z,0.50
2023-04-19T09:51:44.482Z,0.40
2023-04-19T09:52:44.403Z,0.50
2023-04-19T09:53:44.420Z,0.60
2023-04-19T09:54:44.426Z,0.50
2023-04-19T09:55:57.072Z,0.70
2023-04-19T09:56:44.466Z,0.50
2023-04-19T09:57:44.574Z,0.40
2023-04-19T09:58:51.363Z,0.60
2023-04-19T09:59:44.508Z,0.40
2023-04-19T10:00:49.030Z,0.50
2023-04-19T10:01:44.568Z,0.50
2023-04-19T10:02:44.598Z,0.50
2023-04-19T10:03:45.299Z,0.50
2023-04-19T10:05:44.653Z,0.50
2023-04-19T10:07:06.896Z,0.50
2023-04-19T10:07:44.790Z,0.60
2023-04-19T10:08:44.645Z,0.40
2023-04-19T10:09:52.987Z,0.60
2023-04-19T10:10:45.480Z,0.50
2023-04-19T10:11:47.924Z,0.50
2023-04-19T10:13:07.541Z,0.50
2023-04-19T10:13:44.722Z,0.50
2023-04-19T10:14:44.737Z,0.50
2023-04-19T10:15:52.029Z,0.50
2023-04-19T10:16:44.869Z,0.40
2023-04-19T10:17:44.849Z,0.40
2023-04-19T10:18:44.797Z,0.40
2023-04-19T10:19:44.806Z,0.60
2023-04-19T10:20:44.828Z,0.30
2023-04-19T10:21:44.972Z,0.50
2023-04-19T10:22:44.860Z,0.50
2023-04-19T10:23:44.897Z,0.50
2023-04-19T10:24:45.843Z,0.50
2023-04-19T10:25:44.896Z,0.60
2023-04-19T10:26:44.917Z,0.50
2023-04-19T10:27:45.229Z,0.40
2023-04-19T10:28:44.959Z,0.50
2023-04-19T10:29:44.967Z,0.60
2023-04-19T10:30:44.975Z,0.50
2023-04-19T10:31:45.037Z,0.40
2023-04-19T10:32:45.059Z,0.50
2023-04-19T10:33:45.121Z,0.50
2023-04-19T10:34:45.028Z,0.50
2023-04-19T10:35:45.048Z,0.50
2023-04-19T10:36:45.064Z,0.40
2023-04-19T10:37:45.072Z,0.70
2023-04-19T10:38:45.105Z,0.50
2023-04-19T10:39:45.201Z,0.50
2023-04-19T10:40:45.123Z,0.60
2023-04-19T10:41:45.139Z,0.50
2023-04-19T10:42:45.157Z,0.30
2023-04-19T10:43:45.170Z,0.50
2023-04-19T10:44:45.175Z,0.40
2023-04-19T10:45:45.342Z,0.40
2023-04-19T10:46:45.209Z,0.40
2023-04-19T10:47:45.269Z,0.50
2023-04-19T10:48:45.252Z,0.40
2023-04-19T10:49:45.256Z,0.60
2023-04-19T10:50:45.274Z,0.50
2023-04-19T10:51:45.387Z,0.40
2023-04-19T10:52:45.303Z,0.40
2023-04-19T10:53:45.315Z,0.50
2023-04-19T10:54:45.331Z,0.50
2023-04-19T10:55:45.339Z,0.40
2023-04-19T10:56:45.360Z,0.60
2023-04-19T10:57:45.478Z,0.60
2023-04-19T10:58:46.708Z,0.40
2023-04-19T10:59:45.404Z,0.50
2023-04-19T11:00:45.416Z,0.60
2023-04-19T11:01:45.540Z,0.50
2023-04-19T11:02:45.618Z,0.50
2023-04-19T11:03:45.687Z,0.40
2023-04-19T11:04:45.705Z,0.40
2023-04-19T11:05:45.486Z,0.50
2023-04-19T11:06:45.502Z,0.50
2023-04-19T11:07:45.522Z,0.50
2023-04-19T11:08:45.538Z,0.50
2023-04-19T11:09:45.648Z,0.50
2023-04-19T11:10:45.569Z,0.60
2023-04-19T11:11:45.574Z,0.60
2023-04-19T11:12:45.632Z,0.60
2023-04-19T11:13:45.605Z,0.40
2023-04-19T11:14:45.630Z,0.50
2023-04-19T11:15:45.760Z,0.50
2023-04-19T11:16:46.502Z,0.40
2023-04-19T11:17:45.712Z,0.50
2023-04-19T11:18:45.683Z,0.50
2023-04-19T11:19:45.723Z,0.30
2023-04-19T11:20:45.807Z,0.40
2023-04-19T11:21:45.839Z,0.50
2023-04-19T11:22:45.748Z,0.50
2023-04-19T11:23:45.751Z,0.40
2023-04-19T11:24:45.773Z,0.60
2023-04-19T11:25:45.783Z,0.50
2023-04-19T11:26:45.802Z,0.40
2023-04-19T11:27:45.925Z,0.60
2023-04-19T11:28:45.828Z,0.30
2023-04-19T11:29:45.851Z,0.50
2023-04-19T11:30:45.857Z,0.50
2023-04-19T11:31:45.913Z,0.50
2023-04-19T11:32:45.926Z,0.50
2023-04-19T11:33:46.001Z,0.50
2023-04-19T11:34:45.930Z,0.40
2023-04-19T11:35:45.944Z,0.50
2023-04-19T11:36:45.969Z,0.50
2023-04-19T11:37:45.967Z,0.50
2023-04-19T11:38:45.991Z,0.50
2023-04-19T11:39:46.090Z,0.50
2023-04-19T11:40:46.013Z,0.50
2023-04-19T11:41:46.020Z,0.50
2023-04-19T11:42:46.042Z,0.40
2023-04-19T11:43:46.071Z,0.50
2023-04-19T11:44:46.170Z,0.50
2023-04-19T11:45:46.094Z,0.40
2023-04-19T11:46:46.146Z,0.50
2023-04-19T11:47:46.145Z,0.40
2023-04-19T11:48:46.152Z,0.60
2023-04-19T11:49:46.147Z,0.40
2023-04-19T11:50:46.262Z,0.70
2023-04-19T11:51:46.186Z,0.50
2023-04-19T11:52:46.250Z,0.40
2023-04-19T11:53:46.211Z,0.40
2023-04-19T11:54:46.218Z,0.60
2023-04-19T11:55:46.242Z,0.60
2023-04-19T11:56:46.361Z,0.50
2023-04-19T11:57:46.267Z,0.50
2023-04-19T11:58:46.283Z,0.50
2023-04-19T11:59:46.298Z,0.50
2023-04-19T12:00:46.339Z,0.50
2023-04-19T12:01:46.419Z,0.70
2023-04-19T12:02:46.483Z,0.60
2023-04-19T12:03:46.728Z,0.60
2023-04-19T12:04:46.563Z,0.50
2023-04-19T12:05:46.478Z,0.60
2023-04-19T12:06:46.395Z,0.50
2023-04-19T12:07:46.519Z,0.60
2023-04-19T12:08:46.448Z,0.50
2023-04-19T12:09:46.449Z,0.60
2023-04-19T12:10:46.465Z,0.50
2023-04-19T12:11:46.501Z,0.60
2023-04-19T12:12:46.482Z,0.50
2023-04-19T12:13:46.609Z,0.60
2023-04-19T12:14:46.514Z,0.60
2023-04-19T12:15:46.526Z,0.60
2023-04-19T12:16:46.609Z,0.60
2023-04-19T12:17:56.908Z,0.70
2023-04-19T12:18:46.586Z,0.70
2023-04-19T12:19:46.696Z,0.60
2023-04-19T12:20:46.609Z,0.70
2023-04-19T12:21:46.634Z,0.60
2023-04-19T12:22:46.640Z,0.50
2023-04-19T12:23:46.648Z,0.60
2023-04-19T12:24:46.693Z,0.70
2023-04-19T12:25:46.775Z,0.40
2023-04-19T12:26:46.699Z,0.70
2023-04-19T12:27:46.708Z,0.60
2023-04-19T12:28:46.728Z,0.70
2023-04-19T12:29:46.735Z,0.60
2023-04-19T12:30:46.756Z,0.70
2023-04-19T12:31:46.915Z,0.50
2023-04-19T12:32:46.794Z,0.70
2023-04-19T12:33:46.801Z,0.60
2023-04-19T12:34:46.810Z,0.60
2023-04-19T12:35:46.820Z,0.70
2023-04-19T12:36:46.845Z,0.70
2023-04-19T12:37:46.953Z,0.70
2023-04-19T12:38:46.877Z,0.60
2023-04-19T12:39:46.879Z,0.70
2023-04-19T12:40:47.019Z,0.80
2023-04-19T12:41:46.913Z,0.60
2023-04-19T12:42:47.008Z,0.70
2023-04-19T12:43:47.270Z,0.70
2023-04-19T12:44:46.962Z,0.60
2023-04-19T12:45:47.005Z,0.60
2023-04-19T12:46:47.010Z,0.50
2023-04-19T12:47:47.088Z,0.70
2023-04-19T12:48:47.011Z,0.60
2023-04-19T12:49:47.129Z,0.80
2023-04-19T12:50:47.043Z,0.70
2023-04-19T12:51:47.067Z,0.60
2023-04-19T12:52:47.093Z,0.60
2023-04-19T12:53:47.100Z,0.70
2023-04-19T12:54:47.109Z,0.60
2023-04-19T12:55:47.221Z,0.70
2023-04-19T12:56:47.249Z,0.60
2023-04-19T12:57:47.147Z,0.60
2023-04-19T12:58:47.173Z,0.70
2023-04-19T12:59:47.177Z,0.70
2023-04-19T13:00:47.231Z,0.60
2023-04-19T13:01:47.409Z,0.80
2023-04-19T13:02:47.324Z,0.80
2023-04-19T13:03:47.382Z,0.60
2023-04-19T13:04:47.336Z,0.80
2023-04-19T13:05:47.282Z,0.80
2023-04-19T13:06:47.289Z,0.90
2023-04-19T13:07:47.402Z,0.70
2023-04-19T13:08:47.971Z,0.80
2023-04-19T13:09:47.349Z,0.80
2023-04-19T13:10:47.347Z,0.80
2023-04-19T13:11:47.363Z,0.70
2023-04-19T13:12:47.529Z,0.90
2023-04-19T13:13:47.389Z,0.60
2023-04-19T13:14:47.611Z,0.80
2023-04-19T13:15:47.542Z,0.90
2023-04-19T13:16:47.440Z,0.70
2023-04-19T13:17:47.461Z,0.70
2023-04-19T13:18:47.569Z,0.80
2023-04-19T13:19:47.646Z,0.70
2023-04-19T13:20:47.500Z,0.90
2023-04-19T13:21:47.516Z,0.80
2023-04-19T13:22:47.534Z,0.70
2023-04-19T13:23:47.547Z,0.90
2023-04-19T13:24:47.651Z,0.90